Terminal Aerodrome Forecast
Issued by NWS

Home | Current Version | Previous Version | Text Only | Print | Product List | Glossary On
Versions: 1 2 3 4 5 6 7 8 9 10 11 12 13 14 15 16 17 18
000
FTUS42 KFFC 270546
TAFFTY
TAF
KFTY 270546Z 2706/2806 00000KT P6SM SCT120
     FM270800 00000KT P6SM BKN120
     FM271400 12006KT P6SM BKN100
     FM271800 14007KT P6SM SCT050 BKN100
     FM272000 13006KT P6SM VCSH BKN045 PROB30 2721/2803 5SM SHRA
      BKN035
     FM280300 11003KT P6SM BKN035=

USA.gov is the U.S. government's official web portal to all federal, state and local government web resources and services.